Time;durP1;ratioP1;P1;durP2;ratioP2;P2;SDS_P1;SDS_P2;PMS_P1;PMS_P2;Temp;Humidity;BMP_temperature;BMP_pressure;BME280_temperature;BME280_humidity;BME280_pressure;Samples;Min_cycle;Max_cycle;Signal;HPM_P1;HPM_P2
2023/09/09 00:01:03;;;;;;;19.88;9.55;;;;;;;17.55;100.00;94848.72;5080530;28;20032;-83
2023/09/09 00:03:28;;;;;;;15.85;9.40;;;;;;;17.57;100.00;94848.41;5097440;28;20031;-83
2023/09/09 00:05:54;;;;;;;12.85;8.48;;;;;;;17.58;100.00;94848.13;5097153;28;20028;-83
2023/09/09 00:08:19;;;;;;;15.73;9.40;;;;;;;17.59;100.00;94851.56;5098156;28;20104;-83
2023/09/09 00:10:45;;;;;;;18.85;9.20;;;;;;;17.63;100.00;94852.53;5098533;28;20348;-83
2023/09/09 00:13:11;;;;;;;17.50;9.13;;;;;;;17.58;100.00;94845.47;5080357;28;20028;-83
2023/09/09 00:15:37;;;;;;;13.13;9.15;;;;;;;17.74;100.00;94847.75;5096841;28;20055;-83
2023/09/09 00:18:03;;;;;;;14.63;8.38;;;;;;;17.61;100.00;94844.09;5096821;28;20036;-83
2023/09/09 00:20:33;;;;;;;17.08;9.38;;;;;;;17.58;100.00;94850.00;5096911;28;20024;-83
2023/09/09 00:23:00;;;;;;;17.65;8.80;;;;;;;17.48;100.00;94853.63;5097146;28;20341;-83
2023/09/09 00:25:25;;;;;;;11.65;8.48;;;;;;;17.42;100.00;94849.53;5097076;28;20115;-83
2023/09/09 00:27:51;;;;;;;16.85;8.60;;;;;;;17.40;100.00;94854.34;5097877;28;20111;-83
2023/09/09 00:30:16;;;;;;;17.40;8.77;;;;;;;17.37;100.00;94851.22;5096890;28;20039;-83
2023/09/09 00:32:42;;;;;;;18.20;9.40;;;;;;;17.33;100.00;94850.25;5097682;28;20031;-83
2023/09/09 00:35:07;;;;;;;17.30;8.73;;;;;;;17.17;100.00;94855.09;5097518;28;20036;-83
2023/09/09 00:37:33;;;;;;;14.48;9.35;;;;;;;17.07;100.00;94853.44;5096621;28;20048;-82
2023/09/09 00:39:58;;;;;;;17.45;9.27;;;;;;;17.08;100.00;94849.72;5096171;28;20099;-82
2023/09/09 00:42:23;;;;;;;24.25;9.77;;;;;;;17.18;100.00;94847.91;5097517;28;20326;-82
2023/09/09 00:44:49;;;;;;;19.20;9.13;;;;;;;17.16;100.00;94850.88;5090325;28;20026;-83
2023/09/09 00:47:16;;;;;;;19.05;9.68;;;;;;;17.23;100.00;94861.84;5089235;28;20078;-83
2023/09/09 00:49:42;;;;;;;15.90;8.95;;;;;;;17.19;100.00;94860.88;5087736;28;20089;-83
2023/09/09 00:52:08;;;;;;;15.38;9.65;;;;;;;17.27;100.00;94864.69;5087778;28;20031;-83
2023/09/09 00:54:33;;;;;;;15.77;9.20;;;;;;;17.32;100.00;94861.16;5085800;28;20038;-82
2023/09/09 00:57:00;;;;;;;17.98;8.95;;;;;;;17.24;100.00;94857.34;5096350;28;20177;-83
2023/09/09 00:59:26;;;;;;;14.77;8.85;;;;;;;17.29;100.00;94862.50;5079319;28;20054;-82
2023/09/09 01:01:52;;;;;;;20.00;9.13;;;;;;;17.22;100.00;94864.81;5097596;28;20466;-83
2023/09/09 01:04:17;;;;;;;16.65;9.35;;;;;;;17.13;100.00;94858.63;5097176;28;20097;-82
2023/09/09 01:06:43;;;;;;;15.23;8.65;;;;;;;17.09;100.00;94859.22;5096287;28;20082;-83
2023/09/09 01:09:08;;;;;;;17.20;8.35;;;;;;;17.07;100.00;94858.75;5095724;28;20032;-83
2023/09/09 01:11:34;;;;;;;17.80;8.73;;;;;;;16.80;100.00;94852.34;5097442;28;20441;-82
2023/09/09 01:13:59;;;;;;;17.10;9.18;;;;;;;16.85;100.00;94848.81;5096226;28;20031;-83
2023/09/09 01:16:26;;;;;;;20.00;8.27;;;;;;;16.73;100.00;94843.25;5095916;28;20024;-83
2023/09/09 01:18:52;;;;;;;18.90;9.13;;;;;;;16.61;100.00;94844.50;5095971;28;20054;-82
2023/09/09 01:21:18;;;;;;;11.13;8.38;;;;;;;16.66;100.00;94843.63;5096973;28;20032;-83
2023/09/09 01:23:43;;;;;;;14.32;8.32;;;;;;;16.63;100.00;94842.34;5091447;28;20047;-83
2023/09/09 01:26:09;;;;;;;16.48;8.45;;;;;;;16.54;100.00;94844.91;5088594;28;20085;-83
2023/09/09 01:28:34;;;;;;;18.67;9.35;;;;;;;16.59;100.00;94845.88;5076007;28;20028;-83
2023/09/09 01:31:00;;;;;;;17.15;8.55;;;;;;;16.25;100.00;94845.16;5092822;28;20036;-83
2023/09/09 01:33:25;;;;;;;15.80;8.80;;;;;;;16.28;100.00;94839.28;5093099;28;20043;-82
2023/09/09 01:35:51;;;;;;;17.33;8.82;;;;;;;16.09;100.00;94848.06;5094441;28;20463;-83
2023/09/09 01:38:16;;;;;;;16.10;8.30;;;;;;;16.18;100.00;94850.81;5082331;28;20040;-83
2023/09/09 01:40:42;;;;;;;15.55;8.23;;;;;;;16.10;100.00;94851.50;5072611;28;20492;-83
2023/09/09 01:43:07;;;;;;;20.38;8.50;;;;;;;15.94;100.00;94841.19;5072907;28;20033;-83
2023/09/09 01:45:33;;;;;;;13.10;8.93;;;;;;;16.16;100.00;94844.25;5074099;28;20127;-83
2023/09/09 01:47:58;;;;;;;18.27;9.43;;;;;;;16.18;100.00;94842.13;5073969;28;20036;-83
2023/09/09 01:50:24;;;;;;;13.82;9.00;;;;;;;16.10;100.00;94846.22;5073994;28;20132;-82
2023/09/09 01:52:49;;;;;;;15.60;8.35;;;;;;;16.03;100.00;94836.00;5072622;28;20044;-83
2023/09/09 01:55:14;;;;;;;21.13;9.73;;;;;;;15.95;100.00;94840.09;5072806;28;20056;-83
2023/09/09 01:57:40;;;;;;;20.98;9.07;;;;;;;16.11;100.00;94837.97;5072278;28;20391;-83
2023/09/09 02:00:09;;;;;;;19.00;8.40;;;;;;;15.90;100.00;94837.53;5078566;28;20132;-83
2023/09/09 02:02:34;;;;;;;13.35;8.82;;;;;;;15.97;100.00;94843.22;5095345;28;20032;-82
2023/09/09 02:05:06;;;;;;;16.85;9.20;;;;;;;15.84;100.00;94836.03;5098111;28;20429;-83
2023/09/09 02:07:31;;;;;;;18.92;8.88;;;;;;;15.94;100.00;94827.97;5080371;28;20035;-83
2023/09/09 02:09:57;;;;;;;15.23;8.43;;;;;;;16.00;100.00;94833.16;5098073;28;20326;-83
2023/09/09 02:12:22;;;;;;;17.63;9.20;;;;;;;15.91;100.00;94831.16;5098109;28;20112;-83
2023/09/09 02:14:48;;;;;;;14.63;8.77;;;;;;;15.84;100.00;94836.78;5096866;28;20044;-83
2023/09/09 02:17:13;;;;;;;15.65;9.02;;;;;;;15.93;100.00;94831.69;5096667;28;20366;-83
2023/09/09 02:19:38;;;;;;;15.68;8.70;;;;;;;15.88;100.00;94830.94;5097923;28;20028;-83
2023/09/09 02:22:07;;;;;;;19.42;8.85;;;;;;;15.73;100.00;94834.59;5096669;28;20047;-83
2023/09/09 02:24:32;;;;;;;14.25;8.82;;;;;;;15.64;100.00;94832.63;5097808;28;20044;-83
2023/09/09 02:26:58;;;;;;;14.60;8.65;;;;;;;15.61;100.00;94833.19;5097327;28;20348;-82
2023/09/09 02:29:23;;;;;;;16.02;8.43;;;;;;;15.86;100.00;94839.16;5096535;28;20032;-83
2023/09/09 02:31:48;;;;;;;13.05;8.40;;;;;;;15.76;100.00;94837.47;5096303;28;20036;-83
2023/09/09 02:34:14;;;;;;;13.18;8.38;;;;;;;15.73;100.00;94829.31;5096179;28;20035;-83
2023/09/09 02:36:44;;;;;;;24.90;9.07;;;;;;;15.68;100.00;94830.97;5097611;28;20040;-83
2023/09/09 02:39:10;;;;;;;14.88;8.48;;;;;;;15.75;100.00;94830.63;5096291;28;20039;-83
2023/09/09 02:41:35;;;;;;;12.43;7.95;;;;;;;15.73;100.00;94835.41;5096399;28;20047;-83
2023/09/09 02:44:00;;;;;;;15.93;8.65;;;;;;;15.79;100.00;94844.03;5097478;28;20044;-83
2023/09/09 02:46:26;;;;;;;12.82;8.38;;;;;;;15.71;100.00;94832.28;5097449;28;20043;-83
2023/09/09 02:48:51;;;;;;;13.00;7.80;;;;;;;15.78;100.00;94837.97;5078961;28;20046;-83
2023/09/09 02:51:17;;;;;;;15.45;8.48;;;;;;;15.74;100.00;94830.88;5097316;28;20043;-83
2023/09/09 02:53:42;;;;;;;13.65;7.18;;;;;;;15.83;100.00;94824.66;5097377;28;20075;-83
2023/09/09 02:56:07;;;;;;;13.95;7.70;;;;;;;15.86;100.00;94827.81;5096073;28;20043;-83
2023/09/09 02:58:33;;;;;;;19.05;8.73;;;;;;;15.58;100.00;94827.72;5097154;28;20051;-83
2023/09/09 03:01:05;;;;;;;17.88;7.53;;;;;;;15.74;100.00;94828.25;5095915;28;20032;-83
2023/09/09 03:03:31;;;;;;;13.15;7.72;;;;;;;15.75;100.00;94827.97;5095920;28;20107;-83
2023/09/09 03:05:57;;;;;;;12.98;7.88;;;;;;;15.75;100.00;94832.47;5078751;28;20032;-83
2023/09/09 03:08:23;;;;;;;16.27;7.70;;;;;;;15.71;100.00;94828.84;5096950;28;20071;-83
2023/09/09 03:10:48;;;;;;;13.52;7.25;;;;;;;15.56;100.00;94830.63;5095456;28;20437;-82
2023/09/09 03:13:13;;;;;;;11.38;7.40;;;;;;;15.61;100.00;94830.53;5094818;28;20123;-83
2023/09/09 03:15:39;;;;;;;12.77;7.53;;;;;;;15.50;100.00;94827.28;5096518;28;20085;-83
2023/09/09 03:18:04;;;;;;;14.93;7.53;;;;;;;15.55;100.00;94829.06;5095899;28;20070;-83
2023/09/09 03:20:30;;;;;;;10.95;7.25;;;;;;;15.57;100.00;94820.88;5099535;28;20036;-83
2023/09/09 03:22:56;;;;;;;12.80;7.38;;;;;;;15.54;100.00;94827.50;5099188;28;20089;-82
2023/09/09 03:25:21;;;;;;;16.95;7.82;;;;;;;15.35;100.00;94827.50;5099478;28;20031;-82
2023/09/09 03:27:46;;;;;;;12.88;7.47;;;;;;;15.59;100.00;94826.66;5097875;28;20085;-83
2023/09/09 03:30:12;;;;;;;13.85;7.00;;;;;;;15.69;100.00;94827.25;5092905;28;20040;-82
2023/09/09 03:32:37;;;;;;;15.38;7.15;;;;;;;15.71;100.00;94832.28;5085517;28;20046;-82
2023/09/09 03:35:03;;;;;;;11.32;7.57;;;;;;;15.42;100.00;94835.84;5088744;28;20043;-82
2023/09/09 03:37:28;;;;;;;20.10;7.43;;;;;;;15.30;100.00;94836.28;5082689;28;20350;-82
2023/09/09 03:39:54;;;;;;;12.80;6.90;;;;;;;15.34;100.00;94831.22;5089255;28;20043;-82
2023/09/09 03:42:22;;;;;;;11.13;6.88;;;;;;;15.38;100.00;94835.66;5094991;28;20031;-82
2023/09/09 03:44:47;;;;;;;16.35;7.28;;;;;;;15.59;100.00;94824.00;5099071;28;20042;-82
2023/09/09 03:47:12;;;;;;;21.30;7.70;;;;;;;15.36;100.00;94827.22;5098962;28;20036;-82
2023/09/09 03:49:38;;;;;;;10.45;6.60;;;;;;;15.39;100.00;94825.84;5098904;28;20043;-82
2023/09/09 03:52:04;;;;;;;12.40;7.00;;;;;;;15.41;100.00;94818.44;5098878;28;20032;-82
2023/09/09 03:54:29;;;;;;;14.20;7.55;;;;;;;15.28;100.00;94819.94;5097199;28;20463;-82
2023/09/09 03:56:54;;;;;;;18.20;7.82;;;;;;;15.35;100.00;94817.75;5098388;28;20023;-82
2023/09/09 03:59:20;;;;;;;16.73;7.13;;;;;;;15.34;100.00;94818.00;5098794;28;20056;-82
2023/09/09 04:01:45;;;;;;;13.60;6.70;;;;;;;15.21;100.00;94819.53;5098663;28;20040;-82
2023/09/09 04:04:10;;;;;;;12.55;6.75;;;;;;;15.04;100.00;94810.22;5097154;28;20061;-82
2023/09/09 04:06:36;;;;;;;15.15;7.55;;;;;;;15.04;100.00;94815.50;5098585;28;20039;-82
2023/09/09 04:09:02;;;;;;;12.95;6.70;;;;;;;15.13;100.00;94816.44;5096803;28;20036;-82
2023/09/09 04:11:27;;;;;;;13.93;6.45;;;;;;;15.16;100.00;94816.94;5098613;28;20352;-82
2023/09/09 04:13:52;;;;;;;12.27;7.10;;;;;;;15.24;100.00;94814.44;5097380;28;20032;-82
2023/09/09 04:16:18;;;;;;;9.65;6.35;;;;;;;15.15;100.00;94808.25;5098413;28;20039;-82
2023/09/09 04:18:43;;;;;;;11.18;6.78;;;;;;;15.21;100.00;94808.97;5098066;28;20077;-83
2023/09/09 04:21:09;;;;;;;11.75;7.28;;;;;;;15.29;100.00;94816.22;5096743;28;20028;-82
2023/09/09 04:23:34;;;;;;;9.45;6.25;;;;;;;15.38;100.00;94803.97;5097075;28;20050;-82
2023/09/09 04:26:00;;;;;;;11.23;6.60;;;;;;;15.21;100.00;94815.00;5097107;28;20074;-82
2023/09/09 04:28:28;;;;;;;9.60;5.72;;;;;;;15.40;100.00;94814.22;5096687;28;20043;-82
2023/09/09 04:30:53;;;;;;;9.88;5.93;;;;;;;15.41;100.00;94818.44;5098370;28;20445;-82
2023/09/09 04:33:18;;;;;;;14.05;5.88;;;;;;;15.47;100.00;94814.66;5096873;28;20042;-82
2023/09/09 04:35:44;;;;;;;12.63;6.13;;;;;;;15.44;100.00;94817.09;5098047;28;20433;-82
2023/09/09 04:38:10;;;;;;;9.18;6.05;;;;;;;15.44;100.00;94812.59;5096745;28;20027;-82
2023/09/09 04:40:40;;;;;;;9.82;5.90;;;;;;;15.52;100.00;94819.84;5079481;28;20081;-82
2023/09/09 04:43:06;;;;;;;8.20;5.68;;;;;;;15.60;100.00;94821.06;5095294;28;20341;-82
2023/09/09 04:45:31;;;;;;;11.30;5.68;;;;;;;15.39;100.00;94818.72;5096274;28;20046;-82
2023/09/09 04:47:57;;;;;;;8.70;5.78;;;;;;;15.58;100.00;94817.16;5096117;28;20123;-82
2023/09/09 04:50:22;;;;;;;8.93;5.22;;;;;;;15.62;100.00;94813.63;5079475;28;20023;-82
2023/09/09 04:52:48;;;;;;;9.13;5.90;;;;;;;15.61;100.00;94817.34;5096409;28;20043;-82
2023/09/09 04:55:14;;;;;;;14.27;5.45;;;;;;;15.75;100.00;94820.03;5096028;28;20035;-83
2023/09/09 04:57:40;;;;;;;9.40;5.50;;;;;;;15.68;100.00;94815.13;5095846;28;20054;-83
2023/09/09 05:00:07;;;;;;;16.10;6.28;;;;;;;15.75;100.00;94814.75;5096362;28;20036;-83
2023/09/09 05:02:37;;;;;;;14.10;5.80;;;;;;;15.73;100.00;94824.03;5079435;28;20035;-86
2023/09/09 05:05:05;;;;;;;11.27;5.60;;;;;;;15.78;100.00;94837.16;5096271;28;20036;-83
2023/09/09 05:07:35;;;;;;;10.88;5.38;;;;;;;15.88;100.00;94823.78;5096158;28;20028;-83
2023/09/09 05:10:04;;;;;;;9.40;5.20;;;;;;;15.88;100.00;94823.03;5091734;28;20032;-84
2023/09/09 05:12:33;;;;;;;13.77;5.47;;;;;;;15.87;100.00;94824.88;5092500;28;20130;-83
2023/09/09 05:14:59;;;;;;;8.00;4.80;;;;;;;15.90;100.00;94819.03;5079022;28;20027;-84
2023/09/09 05:17:24;;;;;;;10.07;5.80;;;;;;;15.98;100.00;94825.50;5090340;28;20109;-83
2023/09/09 05:19:50;;;;;;;10.32;5.75;;;;;;;15.64;100.00;94827.34;5086584;28;20547;-83
2023/09/09 05:22:16;;;;;;;8.93;5.38;;;;;;;15.79;100.00;94831.59;5080767;28;20068;-84
2023/09/09 05:24:41;;;;;;;13.35;6.10;;;;;;;15.77;100.00;94838.22;5066688;28;20027;-84
2023/09/09 05:27:07;;;;;;;8.45;5.07;;;;;;;15.91;100.00;94830.41;5094881;28;20425;-84
2023/09/09 05:29:32;;;;;;;8.50;5.38;;;;;;;16.01;100.00;94829.44;5078918;28;20023;-84
2023/09/09 05:31:58;;;;;;;9.93;4.95;;;;;;;16.12;100.00;94830.84;5095920;28;20111;-83
2023/09/09 05:34:23;;;;;;;8.35;4.95;;;;;;;16.16;100.00;94828.41;5095568;28;20368;-84
2023/09/09 05:36:48;;;;;;;11.05;4.85;;;;;;;16.29;100.00;94826.84;5095149;28;20047;-84
2023/09/09 05:39:14;;;;;;;7.75;4.53;;;;;;;16.37;100.00;94834.13;5095537;28;20116;-84
2023/09/09 05:41:39;;;;;;;12.95;5.18;;;;;;;16.51;100.00;94842.06;5087851;28;20093;-84
2023/09/09 05:44:05;;;;;;;10.20;4.93;;;;;;;16.56;100.00;94836.66;5097070;28;20107;-84
2023/09/09 05:46:30;;;;;;;11.32;5.35;;;;;;;16.68;100.00;94836.19;5096454;28;20352;-84
2023/09/09 05:48:55;;;;;;;6.70;5.00;;;;;;;16.85;100.00;94840.88;5095533;28;20047;-83
2023/09/09 05:51:21;;;;;;;6.95;4.53;;;;;;;17.10;100.00;94836.16;5095451;28;20063;-84
2023/09/09 05:53:47;;;;;;;12.77;5.18;;;;;;;17.12;100.00;94839.28;5096913;28;20036;-83
2023/09/09 05:56:12;;;;;;;6.90;4.30;;;;;;;17.17;100.00;94844.50;5095025;28;20039;-84
2023/09/09 05:58:38;;;;;;;8.40;4.63;;;;;;;17.31;100.00;94841.81;5096771;28;20444;-85
2023/09/09 06:01:03;;;;;;;6.07;4.43;;;;;;;17.39;100.00;94837.66;5094437;28;20039;-82
2023/09/09 06:03:30;;;;;;;8.40;5.43;;;;;;;17.48;100.00;94843.03;5078637;28;20429;-82
2023/09/09 06:05:55;;;;;;;10.02;5.00;;;;;;;17.50;100.00;94843.53;5095352;28;20082;-83
2023/09/09 06:08:21;;;;;;;9.52;4.00;;;;;;;17.66;100.00;94847.41;5095263;28;20036;-86
2023/09/09 06:10:46;;;;;;;6.65;4.60;;;;;;;17.76;100.00;94848.25;5095295;28;20429;-83
2023/09/09 06:13:11;;;;;;;10.82;4.97;;;;;;;17.93;100.00;94845.72;5095605;28;20039;-83
2023/09/09 06:15:37;;;;;;;7.30;4.40;;;;;;;18.00;100.00;94850.56;5095412;28;20078;-83
2023/09/09 06:18:02;;;;;;;12.77;4.90;;;;;;;18.01;100.00;94851.38;5095420;28;20036;-84
2023/09/09 06:20:28;;;;;;;7.88;4.68;;;;;;;18.08;100.00;94846.47;5094544;28;20031;-84
2023/09/09 06:22:53;;;;;;;7.13;4.72;;;;;;;18.25;100.00;94845.75;5094076;28;20035;-83
2023/09/09 06:25:19;;;;;;;11.43;5.28;;;;;;;18.34;100.00;94851.09;5093414;28;20028;-83
2023/09/09 06:27:45;;;;;;;10.65;4.50;;;;;;;18.43;100.00;94851.16;5094713;28;20086;-84
2023/09/09 06:30:11;;;;;;;7.10;4.88;;;;;;;18.44;100.00;94850.09;5078401;28;20508;-84
2023/09/09 06:32:36;;;;;;;8.25;4.32;;;;;;;18.46;100.00;94851.31;5096587;28;20077;-83
2023/09/09 06:35:02;;;;;;;6.72;4.68;;;;;;;18.67;100.00;94857.97;5095303;28;20044;-85
2023/09/09 06:37:28;;;;;;;8.20;4.57;;;;;;;18.85;100.00;94861.47;5091163;28;20166;-83
2023/09/09 06:39:53;;;;;;;11.52;5.07;;;;;;;18.96;100.00;94856.66;5075050;28;20044;-84
2023/09/09 06:42:18;;;;;;;6.15;4.55;;;;;;;18.76;100.00;94851.59;5091995;28;20046;-84
2023/09/09 06:44:44;;;;;;;8.77;5.03;;;;;;;18.43;100.00;94856.47;5095722;28;20040;-84
2023/09/09 06:47:11;;;;;;;10.23;5.28;;;;;;;18.59;100.00;94862.16;5090874;28;20126;-84
2023/09/09 06:49:36;;;;;;;9.10;5.43;;;;;;;18.93;100.00;94863.34;5099329;28;20195;-84
2023/09/09 06:52:02;;;;;;;11.98;5.55;;;;;;;19.19;100.00;94866.13;5098898;28;20114;-83
2023/09/09 06:54:27;;;;;;;9.88;5.45;;;;;;;19.13;100.00;94863.91;5100030;28;20054;-84
2023/09/09 06:56:53;;;;;;;9.93;5.50;;;;;;;19.06;100.00;94869.69;5098587;28;20101;-84
2023/09/09 06:59:30;;;;;;;7.53;5.20;;;;;;;19.17;100.00;94867.50;5091449;28;20116;-85
2023/09/09 07:02:13;;;;;;;10.05;5.45;;;;;;;19.33;100.00;94873.94;5062213;28;20051;-85
2023/09/09 07:04:41;;;;;;;9.10;5.13;;;;;;;19.20;100.00;94867.69;5092678;28;20028;-84
2023/09/09 07:07:32;;;;;;;;;;;;;;;;;;;;;
2023/09/09 07:10:08;;;;;;;;;;;;;;;;;;;;;
2023/09/09 07:12:41;;;;;;;8.50;4.90;;;;;;;19.62;100.00;94875.22;5098553;28;20020;-85
2023/09/09 07:15:16;;;;;;;10.50;5.45;;;;;;;19.42;100.00;94878.50;5098662;28;20020;-84
2023/09/09 07:17:46;;;;;;;10.85;6.13;;;;;;;19.43;100.00;94883.47;5099316;28;20427;-84
2023/09/09 07:20:15;;;;;;;7.88;5.00;;;;;;;19.47;100.00;94876.47;5098143;28;20024;-84
2023/09/09 07:22:41;;;;;;;8.27;5.18;;;;;;;19.62;100.00;94871.78;5098235;28;20074;-84
2023/09/09 07:25:07;;;;;;;6.00;4.43;;;;;;;19.52;100.00;94883.53;5098289;28;20032;-84
2023/09/09 07:27:32;;;;;;;8.05;4.68;;;;;;;19.59;100.00;94872.44;5081049;28;20357;-85
2023/09/09 07:29:58;;;;;;;8.43;5.03;;;;;;;19.65;100.00;94887.09;5099363;28;20073;-84
2023/09/09 07:32:23;;;;;;;6.30;4.80;;;;;;;19.81;100.00;94886.63;5097869;28;20036;-84
2023/09/09 07:34:49;;;;;;;7.93;4.57;;;;;;;20.10;100.00;94880.72;5098055;28;20028;-84
2023/09/09 07:37:18;;;;;;;5.85;4.38;;;;;;;20.33;100.00;94878.63;5097632;28;20043;-85
2023/09/09 07:39:46;;;;;;;6.63;4.63;;;;;;;20.11;100.00;94874.28;5098079;28;20072;-85
2023/09/09 07:42:14;;;;;;;9.88;4.65;;;;;;;20.06;100.00;94877.91;5097885;28;20039;-84
2023/09/09 07:44:40;;;;;;;9.77;4.90;;;;;;;19.97;100.00;94887.75;5097824;28;20039;-84
2023/09/09 07:47:07;;;;;;;7.70;4.82;;;;;;;20.07;100.00;94886.63;5081331;28;20032;-83
2023/09/09 07:49:35;;;;;;;6.68;4.45;;;;;;;20.33;100.00;94885.81;5080691;28;20035;-82
2023/09/09 07:52:01;;;;;;;8.80;4.28;;;;;;;20.58;100.00;94886.06;5097602;28;20085;-82
2023/09/09 07:54:26;;;;;;;10.10;4.60;;;;;;;20.61;100.00;94882.75;5098791;28;20035;-85
2023/09/09 07:56:53;;;;;;;8.15;5.13;;;;;;;20.75;100.00;94879.91;5098619;28;20032;-85
2023/09/09 07:59:18;;;;;;;6.63;4.68;;;;;;;20.70;100.00;94880.88;5097075;28;20032;-85
2023/09/09 08:01:44;;;;;;;7.20;4.50;;;;;;;21.01;100.00;94884.34;5098725;28;20035;-85
2023/09/09 08:04:09;;;;;;;6.43;4.68;;;;;;;20.92;100.00;94876.41;5097198;28;20077;-84
2023/09/09 08:06:35;;;;;;;7.07;4.85;;;;;;;21.28;100.00;94877.78;5098716;28;20387;-85
2023/09/09 08:09:01;;;;;;;5.43;4.20;;;;;;;21.42;100.00;94887.41;5096860;28;20035;-85
2023/09/09 08:11:26;;;;;;;6.97;4.18;;;;;;;21.44;100.00;94882.53;5097323;28;20020;-86
2023/09/09 08:13:51;;;;;;;7.22;4.88;;;;;;;21.42;100.00;94876.75;5097168;28;20164;-84
2023/09/09 08:16:17;;;;;;;5.75;4.43;;;;;;;21.67;100.00;94880.38;5097233;28;20032;-85
2023/09/09 08:18:42;;;;;;;8.15;4.93;;;;;;;21.84;100.00;94879.47;5098497;28;20032;-85
2023/09/09 08:21:10;;;;;;;7.22;4.43;;;;;;;21.88;100.00;94888.34;5097163;28;20031;-85
2023/09/09 08:23:35;;;;;;;6.53;4.68;;;;;;;22.07;100.00;94884.41;5096959;28;20118;-85
2023/09/09 08:26:01;;;;;;;8.98;4.63;;;;;;;22.28;99.59;94884.38;5098003;28;20504;-86
2023/09/09 08:28:27;;;;;;;10.45;4.97;;;;;;;22.45;97.99;94882.63;5098034;28;20089;-85
2023/09/09 08:31:02;;;;;;;7.82;4.70;;;;;;;22.37;98.10;94886.94;5079546;28;20046;-85
2023/09/09 08:33:28;;;;;;;8.85;5.07;;;;;;;22.11;93.59;94889.88;5096968;28;20067;-86
2023/09/09 08:36:02;;;;;;;13.20;5.18;;;;;;;22.36;96.64;94884.63;5074363;28;20114;-86
2023/09/09 08:38:28;;;;;;;12.88;4.72;;;;;;;22.53;98.89;94886.38;5059863;28;20032;-85
2023/09/09 08:40:58;;;;;;;6.80;5.15;;;;;;;22.44;96.45;94892.53;5082564;28;20028;-84
2023/09/09 08:43:35;;;;;;;7.25;4.53;;;;;;;22.44;99.46;94894.41;5080969;28;20050;-85
2023/09/09 08:46:17;;;;;;;7.07;4.70;;;;;;;22.61;97.68;94893.50;5097601;28;20452;-85
2023/09/09 08:48:43;;;;;;;9.73;4.85;;;;;;;22.85;96.51;94889.28;5096472;28;20322;-85
2023/09/09 08:51:13;;;;;;;11.27;4.50;;;;;;;22.97;91.42;94889.31;5096687;28;20032;-86
2023/09/09 08:53:41;;;;;;;10.18;4.72;;;;;;;22.94;90.93;94889.94;5096605;28;20436;-86
2023/09/09 08:56:07;;;;;;;6.75;4.68;;;;;;;22.98;86.23;94893.53;5088971;28;20430;-86
2023/09/09 08:58:32;;;;;;;10.73;4.47;;;;;;;23.16;85.54;94896.75;5092789;28;20040;-86
2023/09/09 09:00:59;;;;;;;14.00;7.15;;;;;;;23.30;85.82;94892.97;5083452;28;20094;-86
2023/09/09 09:03:25;;;;;;;8.73;5.22;;;;;;;23.29;88.21;94888.75;5091189;28;20025;-85
2023/09/09 09:05:51;;;;;;;11.32;4.15;;;;;;;23.13;84.65;94896.66;5086093;28;20050;-85
2023/09/09 09:08:16;;;;;;;6.95;4.30;;;;;;;23.18;82.41;94883.06;5084454;28;20319;-85
2023/09/09 09:10:47;;;;;;;10.05;4.60;;;;;;;23.26;90.23;94884.88;5074982;28;20102;-86
2023/09/09 09:13:12;;;;;;;11.35;4.70;;;;;;;23.38;83.82;94883.28;5059908;28;20085;-86
2023/09/09 09:15:38;;;;;;;9.15;4.90;;;;;;;23.42;83.91;94892.19;5075706;28;20119;-83
2023/09/09 09:18:04;;;;;;;9.88;4.43;;;;;;;23.51;80.47;94887.47;5080404;28;20040;-83
2023/09/09 09:20:31;;;;;;;6.32;4.20;;;;;;;23.67;81.60;94878.75;5083706;28;20036;-84
2023/09/09 09:23:04;;;;;;;7.18;4.30;;;;;;;23.56;77.36;94878.44;5085553;28;20340;-83
2023/09/09 09:25:39;;;;;;;5.55;4.40;;;;;;;23.47;78.50;94880.50;5064739;28;20024;-83
2023/09/09 09:28:05;;;;;;;11.77;4.40;;;;;;;23.71;78.61;94882.31;5081266;28;20039;-82
2023/09/09 09:30:33;;;;;;;7.03;4.00;;;;;;;23.74;76.11;94887.00;5093380;28;20062;-82
2023/09/09 09:32:58;;;;;;;11.60;4.28;;;;;;;23.45;73.49;94883.50;5097449;28;20030;-83
2023/09/09 09:35:25;;;;;;;10.88;4.20;;;;;;;23.79;72.82;94886.75;5096003;28;20040;-83
2023/09/09 09:38:00;;;;;;;5.80;3.97;;;;;;;23.34;70.16;94885.84;5095884;28;20039;-84
2023/09/09 09:40:29;;;;;;;9.20;3.58;;;;;;;23.61;68.47;94880.91;5078894;28;20384;-82
2023/09/09 09:42:55;;;;;;;7.47;3.78;;;;;;;23.14;61.47;94882.94;5095588;28;20059;-84
2023/09/09 09:45:28;;;;;;;8.07;3.53;;;;;;;23.51;63.85;94876.78;5095785;28;20059;-83
2023/09/09 09:47:54;;;;;;;7.03;3.60;;;;;;;23.85;63.40;94885.41;5078813;28;20421;-82
2023/09/09 09:50:32;;;;;;;7.68;3.40;;;;;;;24.13;67.83;94879.31;5095384;28;20051;-83
2023/09/09 09:52:59;;;;;;;7.88;3.60;;;;;;;23.98;61.64;94880.00;5096108;28;20040;-84
2023/09/09 09:55:25;;;;;;;18.60;3.50;;;;;;;23.98;64.17;94880.00;5095302;28;20032;-84
2023/09/09 09:57:56;;;;;;;5.95;3.90;;;;;;;23.91;64.74;94879.81;5078461;28;20039;-83
2023/09/09 10:00:23;;;;;;;7.85;3.90;;;;;;;24.11;64.23;94878.88;5081852;28;20220;-83
2023/09/09 10:02:53;;;;;;;6.82;3.58;;;;;;;24.27;63.89;94884.25;5075197;28;20063;-83
2023/09/09 10:05:24;;;;;;;6.18;3.63;;;;;;;24.14;65.95;94883.53;5072169;28;20034;-83
2023/09/09 10:08:10;;;;;;;11.27;3.55;;;;;;;24.12;66.08;94883.09;5096627;28;20135;-83
2023/09/09 10:10:37;;;;;;;7.78;3.83;;;;;;;24.30;65.04;94885.47;5096747;28;20039;-83
2023/09/09 10:13:28;;;;;;;6.55;3.65;;;;;;;24.22;61.98;94876.47;5095543;28;20044;-83
2023/09/09 10:15:54;;;;;;;7.75;4.38;;;;;;;24.22;65.85;94881.03;5094322;28;20333;-83
2023/09/09 10:18:20;;;;;;;8.13;4.10;;;;;;;24.27;63.77;94873.53;5078756;28;20054;-83
2023/09/09 10:20:46;;;;;;;6.00;3.67;;;;;;;24.20;65.31;94876.03;5078290;28;20031;-84
2023/09/09 10:23:12;;;;;;;11.50;4.28;;;;;;;24.28;64.56;94871.66;5098067;28;20044;-83
2023/09/09 10:25:38;;;;;;;12.15;3.63;;;;;;;24.38;61.40;94868.44;5099400;28;20039;-83
2023/09/09 10:28:05;;;;;;;13.75;4.10;;;;;;;24.69;62.90;94866.94;5082130;28;20043;-82
2023/09/09 10:30:31;;;;;;;9.23;3.88;;;;;;;24.83;64.04;94863.06;5100154;28;20043;-83
2023/09/09 10:33:00;;;;;;;5.18;3.67;;;;;;;24.91;65.17;94850.59;5099000;28;20031;-83
2023/09/09 10:35:26;;;;;;;8.32;4.22;;;;;;;24.62;65.84;94858.72;5096875;28;20047;-83
2023/09/09 10:37:52;;;;;;;8.57;3.80;;;;;;;24.78;65.77;94856.06;5100040;28;20040;-83
2023/09/09 10:40:18;;;;;;;7.22;4.43;;;;;;;24.73;66.05;94853.59;5099093;28;20039;-83
2023/09/09 10:42:44;;;;;;;9.68;4.57;;;;;;;24.41;68.78;94850.91;5099159;28;20047;-84
2023/09/09 10:45:29;;;;;;;8.45;4.65;;;;;;;24.61;65.68;94846.44;5082200;28;20360;-84
2023/09/09 10:48:05;;;;;;;9.20;4.25;;;;;;;24.90;66.25;94846.38;5098825;28;20043;-83
2023/09/09 10:50:43;;;;;;;6.60;4.10;;;;;;;24.61;67.00;94843.75;5081606;28;20063;-83
2023/09/09 10:53:28;;;;;;;7.47;4.30;;;;;;;24.77;67.61;94848.34;5099032;28;20326;-84
2023/09/09 10:56:16;;;;;;;10.18;4.05;;;;;;;24.77;66.67;94845.69;5098644;28;20333;-84
2023/09/09 10:58:43;;;;;;;7.53;4.10;;;;;;;25.01;67.65;94849.28;5092018;28;20382;-83
2023/09/09 11:01:09;;;;;;;7.38;3.90;;;;;;;25.05;67.18;94845.56;5098526;28;20032;-84
2023/09/09 11:03:42;;;;;;;7.93;4.50;;;;;;;25.11;66.25;94836.13;5098313;28;20131;-84
2023/09/09 11:06:11;;;;;;;9.18;4.28;;;;;;;24.91;66.95;94834.53;5098512;28;20028;-84
2023/09/09 11:08:46;;;;;;;8.98;4.38;;;;;;;24.81;65.52;94841.97;5082092;28;20028;-83
2023/09/09 11:11:12;;;;;;;13.48;4.25;;;;;;;24.85;68.20;94834.03;5098605;28;20028;-84
2023/09/09 11:13:53;;;;;;;8.15;4.25;;;;;;;24.78;66.55;94820.44;5098608;28;20118;-84
2023/09/09 11:16:37;;;;;;;11.23;4.60;;;;;;;25.09;66.24;94826.88;5098454;28;20157;-83
2023/09/09 11:19:08;;;;;;;6.10;4.03;;;;;;;25.26;67.27;94839.13;5099324;28;20032;-84
2023/09/09 11:21:39;;;;;;;7.13;4.60;;;;;;;25.18;65.27;94832.81;5098435;28;20088;-84
2023/09/09 11:24:06;;;;;;;8.68;4.20;;;;;;;25.45;66.38;94838.38;5096502;28;20441;-83